Time;durP1;ratioP1;P1;durP2;ratioP2;P2;SDS_P1;SDS_P2;PMS_P1;PMS_P2;Temp;Humidity;BMP_temperature;BMP_pressure;BME280_temperature;BME280_humidity;BME280_pressure;Samples;Min_cycle;Max_cycle;Signal;HPM_P1;HPM_P2
2023/01/19 00:02:24;;;;;;;17.45;4.50;;;2.70;99.90;;;;;;6205318;23;20028;-79
2023/01/19 00:04:50;;;;;;;10.10;3.30;;;2.50;99.90;;;;;;6202158;23;20483;-79
2023/01/19 00:07:15;;;;;;;10.95;3.60;;;2.60;99.90;;;;;;6181333;23;20360;-79
2023/01/19 00:09:41;;;;;;;9.98;3.33;;;2.40;99.90;;;;;;6210180;23;20013;-79
2023/01/19 00:12:07;;;;;;;10.40;3.25;;;2.10;99.90;;;;;;6210493;23;20009;-78
2023/01/19 00:14:33;;;;;;;8.13;2.80;;;2.20;99.90;;;;;;6184490;23;20353;-78
2023/01/19 00:17:00;;;;;;;9.93;2.53;;;2.30;99.90;;;;;;6184550;23;20016;-81
2023/01/19 00:19:29;;;;;;;7.90;2.85;;;2.60;99.90;;;;;;6185790;23;20016;-81
2023/01/19 00:21:55;;;;;;;7.07;2.78;;;2.30;99.90;;;;;;6186320;23;20047;-79
2023/01/19 00:24:26;;;;;;;9.85;3.05;;;2.60;99.90;;;;;;6186659;23;20016;-79
2023/01/19 00:26:51;;;;;;;8.73;3.17;;;2.50;99.90;;;;;;6212277;23;20068;-79
2023/01/19 00:29:17;;;;;;;10.77;2.53;;;2.20;99.90;;;;;;6211906;23;20456;-79
2023/01/19 00:31:43;;;;;;;7.78;2.55;;;2.70;99.90;;;;;;6207141;23;20056;-80
2023/01/19 00:34:09;;;;;;;8.55;2.10;;;2.60;99.90;;;;;;6210360;23;20440;-81
2023/01/19 00:36:34;;;;;;;9.13;2.50;;;2.70;99.90;;;;;;6182376;23;20020;-79
2023/01/19 00:39:00;;;;;;;6.72;2.10;;;2.50;99.90;;;;;;6206003;23;20012;-81
2023/01/19 00:44:11;;;;;;;6.05;3.05;;;2.20;99.90;;;;;;6207588;23;20280;-81
2023/01/19 00:46:38;;;;;;;7.18;3.30;;;2.50;99.90;;;;;;6206936;23;20507;-79
2023/01/19 00:49:04;;;;;;;9.32;3.17;;;2.50;99.90;;;;;;6188811;23;20028;-81
2023/01/19 00:51:30;;;;;;;11.23;3.30;;;2.50;99.90;;;;;;6158707;23;20063;-79
2023/01/19 00:53:58;;;;;;;7.68;3.50;;;2.70;99.90;;;;;;6207723;23;20139;-78
2023/01/19 00:56:24;;;;;;;5.03;3.40;;;2.10;99.90;;;;;;6183027;23;20043;-81
2023/01/19 00:58:49;;;;;;;12.95;3.92;;;2.70;99.90;;;;;;6209291;23;20048;-79
2023/01/19 01:01:15;;;;;;;12.35;3.60;;;2.80;99.90;;;;;;6185990;23;20490;-80
2023/01/19 01:03:41;;;;;;;12.77;3.47;;;2.60;99.90;;;;;;6182683;23;20017;-80
2023/01/19 01:06:07;;;;;;;14.75;4.18;;;2.50;99.90;;;;;;6209330;23;20032;-78
2023/01/19 01:08:33;;;;;;;10.68;2.78;;;2.80;99.90;;;;;;6209568;23;20028;-78
2023/01/19 01:10:59;;;;;;;11.25;2.70;;;2.60;99.90;;;;;;6213221;23;20063;-79
2023/01/19 01:13:26;;;;;;;6.25;2.63;;;2.70;99.90;;;;;;6184929;23;20033;-77
2023/01/19 01:15:53;;;;;;;7.53;2.25;;;2.80;99.90;;;;;;6211622;23;20354;-78
2023/01/19 01:18:21;;;;;;;12.25;2.70;;;2.80;99.90;;;;;;6185973;23;20436;-79
2023/01/19 01:20:47;;;;;;;11.60;2.45;;;3.00;99.90;;;;;;6209108;23;20013;-80
2023/01/19 01:23:13;;;;;;;10.75;2.00;;;2.40;99.90;;;;;;6207551;23;20019;-80
2023/01/19 01:25:39;;;;;;;6.28;1.83;;;2.30;99.90;;;;;;6208325;23;20016;-79
2023/01/19 01:28:07;;;;;;;6.97;1.50;;;2.90;99.90;;;;;;6181328;23;20336;-80
2023/01/19 01:30:39;;;;;;;8.52;1.52;;;2.60;99.90;;;;;;6183904;23;20020;-78
2023/01/19 01:33:06;;;;;;;10.10;1.58;;;2.90;99.90;;;;;;6207835;23;20028;-80
2023/01/19 01:35:32;;;;;;;6.35;1.30;;;2.40;99.90;;;;;;6186902;23;20051;-78
2023/01/19 01:37:59;;;;;;;7.63;1.40;;;2.90;99.90;;;;;;6208360;23;20440;-81
2023/01/19 01:40:24;;;;;;;8.13;1.60;;;3.00;99.90;;;;;;6209288;23;20013;-80
2023/01/19 01:42:50;;;;;;;9.85;1.30;;;2.60;99.90;;;;;;6209273;23;20019;-81
2023/01/19 01:45:37;;;;;;;8.45;1.48;;;2.60;99.90;;;;;;6208395;23;20067;-80
2023/01/19 01:48:11;;;;;;;12.75;1.75;;;2.60;99.90;;;;;;6209598;23;20432;-79
2023/01/19 01:51:22;;;;;;;8.93;1.40;;;3.10;99.90;;;;;;6213942;23;20013;-79
2023/01/19 01:53:31;;;;;;;8.82;1.30;;;2.80;99.90;;;;;;6207957;23;20017;-82
2023/01/19 01:55:58;;;;;;;11.50;1.60;;;3.20;99.90;;;;;;6182915;23;20096;-79
2023/01/19 01:58:24;;;;;;;14.98;1.90;;;3.10;99.90;;;;;;6212113;23;20090;-80
2023/01/19 02:03:34;;;;;;;4.32;1.83;;;3.20;99.90;;;;;;6207569;23;20016;-81
2023/01/19 02:06:02;;;;;;;8.82;2.30;;;2.80;99.90;;;;;;6209843;23;20391;-78
2023/01/19 02:14:13;;;;;;;10.18;3.30;;;2.90;99.90;;;;;;6211326;23;20017;-79
2023/01/19 02:16:40;;;;;;;13.10;4.45;;;3.00;99.90;;;;;;6185903;23;20009;-79
2023/01/19 02:19:11;;;;;;;11.85;4.63;;;3.10;99.90;;;;;;6211778;23;20012;-78
2023/01/19 02:21:43;;;;;;;10.60;4.07;;;3.00;99.90;;;;;;6209397;23;20368;-78
2023/01/19 02:24:09;;;;;;;10.00;4.30;;;2.60;99.90;;;;;;6209140;23;20027;-81
2023/01/19 02:26:44;;;;;;;11.07;5.15;;;2.50;99.90;;;;;;6184005;23;20058;-80
2023/01/19 02:29:14;;;;;;;12.65;5.22;;;2.90;99.90;;;;;;6209636;23;20262;-79
2023/01/19 02:31:40;;;;;;;11.82;5.28;;;2.70;99.90;;;;;;6205252;23;20340;-80
2023/01/19 02:34:08;;;;;;;14.65;5.13;;;2.40;99.90;;;;;;6205452;23;20031;-80
2023/01/19 02:36:56;;;;;;;13.60;5.50;;;2.40;99.90;;;;;;6180969;23;20013;-81
2023/01/19 02:39:37;;;;;;;6.97;5.10;;;2.90;99.90;;;;;;6206510;23;20013;-80
2023/01/19 02:42:08;;;;;;;10.02;5.15;;;2.80;99.90;;;;;;6180126;23;20302;-81
2023/01/19 02:44:35;;;;;;;7.32;4.80;;;2.60;99.90;;;;;;6207710;23;20087;-79
2023/01/19 02:47:02;;;;;;;9.60;5.15;;;2.90;99.90;;;;;;6180504;23;20746;-79
2023/01/19 02:49:31;;;;;;;10.60;5.22;;;2.60;99.90;;;;;;6205717;23;20047;-78
2023/01/19 02:51:59;;;;;;;8.65;4.85;;;2.80;99.90;;;;;;6183711;23;20122;-82
2023/01/19 02:54:54;;;;;;;7.72;4.72;;;2.80;99.90;;;;;;6209254;23;20052;-80
2023/01/19 02:57:38;;;;;;;6.15;4.30;;;2.50;99.90;;;;;;6206019;23;20158;-77
2023/01/19 03:00:31;;;;;;;7.20;3.78;;;2.80;99.90;;;;;;6183685;23;20020;-78
2023/01/19 03:03:15;;;;;;;6.32;3.90;;;3.00;99.90;;;;;;6205032;23;20020;-81
2023/01/19 03:05:43;;;;;;;6.07;3.70;;;3.00;99.90;;;;;;6180118;23;20020;-79
2023/01/19 03:08:29;;;;;;;8.73;4.28;;;2.90;99.90;;;;;;6208455;23;20024;-79
2023/01/19 03:10:58;;;;;;;6.47;3.83;;;2.40;99.90;;;;;;6207726;23;20066;-83
2023/01/19 03:13:30;;;;;;;6.32;4.13;;;2.60;99.90;;;;;;6206823;23;20753;-82
2023/01/19 03:16:10;;;;;;;8.68;4.30;;;2.90;99.90;;;;;;6207086;23;20016;-80
2023/01/19 03:18:39;;;;;;;7.47;4.50;;;2.40;99.90;;;;;;6179776;23;20012;-81
2023/01/19 03:21:06;;;;;;;7.65;4.13;;;2.80;99.90;;;;;;6207772;23;20065;-80
2023/01/19 03:23:34;;;;;;;7.40;4.30;;;2.60;99.90;;;;;;6205406;23;20121;-82
2023/01/19 03:26:01;;;;;;;8.20;4.40;;;2.90;99.90;;;;;;6205723;23;20019;-80
2023/01/19 03:28:28;;;;;;;7.95;4.82;;;2.40;99.90;;;;;;6180630;23;20289;-80
2023/01/19 03:31:05;;;;;;;9.68;4.45;;;2.40;99.90;;;;;;6180531;23;20074;-79
2023/01/19 03:33:35;;;;;;;7.45;4.57;;;2.90;99.90;;;;;;6183755;23;20016;-82
2023/01/19 03:36:06;;;;;;;5.43;4.15;;;2.90;99.90;;;;;;6182597;23;20055;-82
2023/01/19 03:38:36;;;;;;;7.80;4.40;;;2.90;99.90;;;;;;6182940;23;20035;-80
2023/01/19 03:41:07;;;;;;;11.77;4.93;;;2.60;99.90;;;;;;6206238;23;20484;-80
2023/01/19 03:43:34;;;;;;;13.55;4.68;;;2.80;99.90;;;;;;6179291;23;20019;-81
2023/01/19 03:46:02;;;;;;;7.72;5.05;;;2.80;99.90;;;;;;6179025;23;20336;-82
2023/01/19 03:48:28;;;;;;;9.43;4.30;;;2.50;99.90;;;;;;6182113;23;20031;-82
2023/01/19 03:50:54;;;;;;;6.15;4.60;;;2.50;99.90;;;;;;6205835;23;20016;-83
2023/01/19 03:53:21;;;;;;;8.30;4.82;;;2.50;99.90;;;;;;6155293;23;20043;-80
2023/01/19 03:55:50;;;;;;;7.85;5.00;;;2.80;99.90;;;;;;6181397;23;20017;-81
2023/01/19 03:58:16;;;;;;;8.90;5.10;;;2.90;99.90;;;;;;6207287;23;20328;-78
2023/01/19 04:00:42;;;;;;;8.27;4.57;;;2.40;99.90;;;;;;6183825;23;20079;-83
2023/01/19 04:03:16;;;;;;;8.48;4.90;;;2.90;99.90;;;;;;6208255;23;20528;-79
2023/01/19 04:05:43;;;;;;;9.65;4.85;;;2.50;99.90;;;;;;6182679;23;20019;-79
2023/01/19 04:08:09;;;;;;;11.15;5.30;;;2.50;99.90;;;;;;6181991;23;20120;-78
2023/01/19 04:10:36;;;;;;;8.18;5.03;;;2.70;99.90;;;;;;6184506;23;20092;-80
2023/01/19 04:13:02;;;;;;;7.38;4.57;;;3.00;99.90;;;;;;6209168;23;20113;-81
2023/01/19 04:15:28;;;;;;;8.40;4.95;;;3.00;99.90;;;;;;6184755;23;20013;-79
2023/01/19 04:17:57;;;;;;;11.80;4.90;;;2.70;99.90;;;;;;6184848;23;20127;-79
2023/01/19 04:20:23;;;;;;;10.23;4.75;;;2.50;99.90;;;;;;6183090;23;20047;-83
2023/01/19 04:22:48;;;;;;;10.85;5.30;;;2.50;99.90;;;;;;6209832;23;20087;-81
2023/01/19 04:25:14;;;;;;;7.47;4.47;;;2.50;99.90;;;;;;6209002;23;20400;-81
2023/01/19 04:27:40;;;;;;;7.57;4.30;;;2.70;99.90;;;;;;6184277;23;20008;-79
2023/01/19 04:30:08;;;;;;;12.60;4.75;;;2.90;99.90;;;;;;6212401;23;20016;-78
2023/01/19 04:32:34;;;;;;;10.00;4.68;;;2.40;99.90;;;;;;6209151;23;20715;-80
2023/01/19 04:35:00;;;;;;;6.45;4.35;;;2.60;99.90;;;;;;6184956;23;20008;-79
2023/01/19 04:37:25;;;;;;;9.45;5.03;;;2.50;99.90;;;;;;6182434;23;20017;-80
2023/01/19 04:39:51;;;;;;;10.27;4.75;;;2.70;99.90;;;;;;6183539;23;20066;-79
2023/01/19 04:42:17;;;;;;;15.73;4.60;;;2.30;99.90;;;;;;6211501;23;20180;-81
2023/01/19 04:44:42;;;;;;;8.13;4.30;;;2.80;99.90;;;;;;6212246;23;20318;-78
2023/01/19 04:47:08;;;;;;;10.98;4.68;;;2.40;99.90;;;;;;6185620;23;20122;-80
2023/01/19 04:49:36;;;;;;;8.30;4.75;;;2.60;99.90;;;;;;6210770;23;20012;-79
2023/01/19 04:52:03;;;;;;;9.90;4.47;;;2.70;99.90;;;;;;6210879;23;20016;-81
2023/01/19 04:54:29;;;;;;;11.35;4.72;;;2.20;99.90;;;;;;6185789;23;20012;-79
2023/01/19 04:56:55;;;;;;;13.57;4.85;;;2.70;99.90;;;;;;6183673;23;20013;-79
2023/01/19 04:59:21;;;;;;;12.45;4.90;;;2.70;99.90;;;;;;6187970;23;20016;-80
2023/01/19 05:01:46;;;;;;;11.32;5.22;;;2.30;99.90;;;;;;6210467;23;20340;-80
2023/01/19 05:04:12;;;;;;;11.88;5.43;;;2.70;99.90;;;;;;6186716;23;20013;-80
2023/01/19 05:06:37;;;;;;;9.90;4.72;;;2.60;99.90;;;;;;6207949;23;20052;-79
2023/01/19 05:09:04;;;;;;;12.45;4.18;;;2.50;99.90;;;;;;6210639;23;20035;-79
2023/01/19 05:11:29;;;;;;;8.68;3.60;;;2.40;99.90;;;;;;6185010;23;20149;-81
2023/01/19 05:13:55;;;;;;;9.60;3.60;;;2.50;99.90;;;;;;6209126;23;20012;-79
2023/01/19 05:16:22;;;;;;;15.27;3.38;;;2.20;99.90;;;;;;6183065;23;20024;-79
2023/01/19 05:18:48;;;;;;;7.32;3.25;;;2.30;99.90;;;;;;6184084;23;20035;-79
2023/01/19 05:21:14;;;;;;;7.90;2.88;;;2.50;99.90;;;;;;6209651;23;20440;-79
2023/01/19 05:23:40;;;;;;;10.00;2.80;;;2.20;99.90;;;;;;6208050;23;20052;-80
2023/01/19 05:26:05;;;;;;;10.18;2.35;;;2.70;99.90;;;;;;6187263;23;20759;-80
2023/01/19 05:28:32;;;;;;;7.20;2.30;;;2.20;99.90;;;;;;6186804;23;20016;-78
2023/01/19 05:30:57;;;;;;;13.50;1.70;;;2.80;99.90;;;;;;6210050;23;20160;-79
2023/01/19 05:33:24;;;;;;;7.32;1.95;;;2.50;99.90;;;;;;6186057;23;20104;-82
2023/01/19 05:35:51;;;;;;;9.85;1.50;;;2.50;99.90;;;;;;6186402;23;20059;-78
2023/01/19 05:38:17;;;;;;;6.70;1.27;;;2.80;99.90;;;;;;6210334;23;20013;-81
2023/01/19 05:40:43;;;;;;;3.70;1.00;;;2.70;99.90;;;;;;6185400;23;20013;-80
2023/01/19 05:43:09;;;;;;;4.00;0.88;;;2.90;99.90;;;;;;6208255;23;20020;-78
2023/01/19 05:45:34;;;;;;;10.38;1.00;;;2.40;99.90;;;;;;6186111;23;20512;-77
2023/01/19 05:48:01;;;;;;;5.22;0.80;;;2.80;99.90;;;;;;6186545;23;20512;-81
2023/01/19 05:50:26;;;;;;;8.05;0.93;;;2.60;99.90;;;;;;6207909;23;20792;-79
2023/01/19 05:52:52;;;;;;;8.15;1.05;;;2.90;99.90;;;;;;6208169;23;20147;-81
2023/01/19 05:55:18;;;;;;;10.43;1.13;;;2.90;99.90;;;;;;6186159;23;20017;-80
2023/01/19 05:57:44;;;;;;;3.10;0.95;;;3.00;99.90;;;;;;6186784;23;20012;-78
2023/01/19 06:00:12;;;;;;;11.40;1.17;;;2.70;99.90;;;;;;6209536;23;20035;-80
2023/01/19 06:02:37;;;;;;;8.45;1.38;;;3.10;99.90;;;;;;6208816;23;20112;-82
2023/01/19 06:05:03;;;;;;;5.45;1.30;;;2.70;99.90;;;;;;6183849;23;20092;-80
2023/01/19 06:07:30;;;;;;;11.38;1.10;;;3.10;99.90;;;;;;6209439;23;20005;-78
2023/01/19 06:09:56;;;;;;;7.00;1.10;;;3.00;99.90;;;;;;6209696;23;20401;-79
2023/01/19 06:12:22;;;;;;;6.70;0.90;;;2.90;99.90;;;;;;6182485;23;20047;-80
2023/01/19 06:14:48;;;;;;;8.45;1.30;;;2.60;99.90;;;;;;6209996;23;20056;-80
2023/01/19 06:17:13;;;;;;;8.98;1.45;;;3.10;99.90;;;;;;6207677;23;20043;-79
2023/01/19 06:19:39;;;;;;;6.22;1.10;;;2.70;99.90;;;;;;6211823;23;20016;-79
2023/01/19 06:22:05;;;;;;;8.45;1.25;;;2.90;99.90;;;;;;6209047;23;20317;-79
2023/01/19 06:24:31;;;;;;;10.63;1.30;;;3.10;99.90;;;;;;6183375;23;20449;-80
2023/01/19 06:26:59;;;;;;;8.63;1.20;;;2.90;99.90;;;;;;6207447;23;20022;-82
2023/01/19 06:29:25;;;;;;;5.72;0.80;;;2.80;99.90;;;;;;6180540;23;20017;-82
2023/01/19 06:31:51;;;;;;;8.48;1.17;;;3.00;99.90;;;;;;6181904;23;20013;-82
2023/01/19 06:34:18;;;;;;;6.47;1.23;;;2.70;99.90;;;;;;6187989;23;20036;-83
2023/01/19 06:36:45;;;;;;;13.93;1.35;;;3.10;99.90;;;;;;6209077;23;20054;-81
2023/01/19 06:39:11;;;;;;;13.93;1.65;;;3.00;99.90;;;;;;6183758;23;20019;-81
2023/01/19 06:41:37;;;;;;;9.50;1.75;;;3.00;99.90;;;;;;6179837;23;20016;-82
2023/01/19 06:44:03;;;;;;;16.73;1.40;;;3.00;99.90;;;;;;6180349;23;20013;-82
2023/01/19 06:46:29;;;;;;;17.63;1.60;;;2.90;99.90;;;;;;6203446;23;20090;-80
2023/01/19 06:48:55;;;;;;;14.35;1.67;;;2.70;99.90;;;;;;6181139;23;20433;-80
2023/01/19 06:51:22;;;;;;;11.95;1.67;;;2.70;99.90;;;;;;6183457;23;20058;-80
2023/01/19 06:53:48;;;;;;;8.50;1.35;;;2.40;99.90;;;;;;6206052;23;20020;-81
2023/01/19 06:56:14;;;;;;;11.52;1.55;;;3.10;99.90;;;;;;6204170;23;20015;-83
2023/01/19 06:58:41;;;;;;;19.92;1.65;;;2.50;99.90;;;;;;6180487;23;20009;-78
2023/01/19 07:01:07;;;;;;;17.63;1.95;;;3.00;99.90;;;;;;6185510;23;20074;-79
2023/01/19 07:03:34;;;;;;;9.48;1.25;;;3.00;99.90;;;;;;6182982;23;20411;-77
2023/01/19 07:06:01;;;;;;;10.15;1.17;;;3.00;99.90;;;;;;6208852;23;20043;-80
2023/01/19 07:08:30;;;;;;;11.57;1.42;;;3.10;99.90;;;;;;6206430;23;20450;-80
2023/01/19 07:11:04;;;;;;;10.13;1.30;;;3.40;99.90;;;;;;6205390;23;20083;-81
2023/01/19 07:13:30;;;;;;;7.25;0.75;;;3.00;99.90;;;;;;6207482;23;20020;-78
2023/01/19 07:15:56;;;;;;;10.65;1.55;;;3.40;99.90;;;;;;6183168;23;20423;-81
2023/01/19 07:18:22;;;;;;;11.63;1.27;;;3.20;99.90;;;;;;6182682;23;20015;-80
2023/01/19 07:20:48;;;;;;;8.55;1.27;;;3.40;99.90;;;;;;6182060;23;20016;-80
2023/01/19 07:23:14;;;;;;;7.13;1.15;;;3.50;99.90;;;;;;6208564;23;20195;-80
2023/01/19 07:25:44;;;;;;;12.90;1.52;;;3.50;99.90;;;;;;6183768;23;20020;-80
2023/01/19 07:28:11;;;;;;;13.93;2.08;;;3.10;99.90;;;;;;6184784;23;20158;-80
2023/01/19 07:30:37;;;;;;;19.60;1.63;;;3.40;99.90;;;;;;6181709;23;20095;-78
2023/01/19 07:33:03;;;;;;;21.58;1.88;;;3.10;99.90;;;;;;6199884;23;20797;-79
2023/01/19 07:35:28;;;;;;;15.65;1.65;;;3.60;99.90;;;;;;6178975;23;20013;-80
2023/01/19 07:37:54;;;;;;;17.55;1.85;;;3.00;99.90;;;;;;6179051;23;20016;-81
2023/01/19 07:40:20;;;;;;;25.13;2.75;;;3.10;99.90;;;;;;6206515;23;20021;-79
2023/01/19 07:42:50;;;;;;;25.23;2.20;;;3.30;99.90;;;;;;6206650;23;20496;-81
2023/01/19 07:45:17;;;;;;;20.38;1.90;;;3.40;99.90;;;;;;6202012;23;20042;-79
2023/01/19 07:47:44;;;;;;;15.77;1.88;;;3.30;99.90;;;;;;6180463;23;20396;-81
2023/01/19 07:50:11;;;;;;;18.42;2.22;;;3.40;99.90;;;;;;6178179;23;20562;-81
2023/01/19 07:52:37;;;;;;;29.48;3.17;;;3.90;99.90;;;;;;6179383;23;20525;-79
2023/01/19 07:55:03;;;;;;;26.05;2.97;;;3.90;99.90;;;;;;6181832;23;20013;-78
2023/01/19 07:57:29;;;;;;;20.40;2.45;;;4.00;99.90;;;;;;6180500;23;20074;-81
2023/01/19 07:59:55;;;;;;;16.80;2.70;;;3.60;99.90;;;;;;6209277;23;20071;-83
2023/01/19 08:02:20;;;;;;;21.10;2.30;;;3.80;99.90;;;;;;6183431;23;20012;-79
2023/01/19 08:04:49;;;;;;;13.88;1.85;;;3.90;99.90;;;;;;6209071;23;20038;-80
2023/01/19 08:07:15;;;;;;;12.15;1.50;;;3.90;99.90;;;;;;6206841;23;20800;-80
2023/01/19 08:09:42;;;;;;;11.05;1.85;;;3.80;99.90;;;;;;6207850;23;20074;-84
2023/01/19 08:12:07;;;;;;;9.60;2.00;;;3.90;99.90;;;;;;6210515;23;20020;-79
2023/01/19 08:14:34;;;;;;;15.30;1.95;;;3.70;99.90;;;;;;6210775;23;20017;-84
2023/01/19 08:17:00;;;;;;;21.05;2.40;;;3.70;99.90;;;;;;6209936;23;20017;-79
2023/01/19 08:19:27;;;;;;;16.10;2.35;;;3.90;99.90;;;;;;6185089;23;20035;-80
2023/01/19 08:21:53;;;;;;;16.45;2.15;;;4.00;99.90;;;;;;6188630;23;20020;-78
2023/01/19 08:24:21;;;;;;;15.98;2.03;;;4.10;99.90;;;;;;6183852;23;20016;-79
2023/01/19 08:26:49;;;;;;;20.15;2.95;;;4.10;99.90;;;;;;6185616;23;20509;-81
2023/01/19 08:29:15;;;;;;;25.15;2.30;;;4.10;99.90;;;;;;6210000;23;20020;-78
2023/01/19 08:31:40;;;;;;;15.95;2.13;;;4.20;99.90;;;;;;6184449;23;20012;-79
2023/01/19 08:34:07;;;;;;;21.58;2.45;;;3.90;99.90;;;;;;6182769;23;20055;-79
2023/01/19 08:36:33;;;;;;;19.05;2.58;;;4.10;99.90;;;;;;6210018;23;20051;-78
2023/01/19 08:38:59;;;;;;;23.17;2.60;;;4.00;99.90;;;;;;6182489;23;20012;-81
2023/01/19 08:41:25;;;;;;;18.85;2.42;;;3.80;99.90;;;;;;6209910;23;20344;-79
2023/01/19 08:43:51;;;;;;;13.38;2.10;;;4.00;99.90;;;;;;6212394;23;20437;-79
2023/01/19 08:46:19;;;;;;;29.77;2.83;;;3.80;99.90;;;;;;6187388;23;20114;-78
2023/01/19 08:48:47;;;;;;;24.17;3.17;;;3.70;99.90;;;;;;6191753;23;20016;-80
2023/01/19 08:51:14;;;;;;;19.42;2.45;;;3.60;99.90;;;;;;6187803;23;20412;-80
2023/01/19 08:53:41;;;;;;;28.25;2.80;;;3.60;99.90;;;;;;6186697;23;20059;-79
2023/01/19 08:56:11;;;;;;;24.75;2.80;;;3.90;99.90;;;;;;6187893;23;20008;-81
2023/01/19 08:58:46;;;;;;;17.23;2.83;;;3.60;99.90;;;;;;6187481;23;20009;-80
2023/01/19 09:01:15;;;;;;;26.33;2.47;;;3.70;99.90;;;;;;6211565;23;20441;-79
2023/01/19 09:03:41;;;;;;;17.65;2.35;;;3.70;99.90;;;;;;6186731;23;20509;-79
2023/01/19 09:06:09;;;;;;;18.88;2.28;;;3.60;99.90;;;;;;6191361;23;20626;-80
2023/01/19 09:08:34;;;;;;;22.65;3.03;;;3.60;99.90;;;;;;6163327;23;20012;-79
2023/01/19 09:11:01;;;;;;;27.95;2.58;;;3.50;99.90;;;;;;6187692;23;20341;-80
2023/01/19 09:13:26;;;;;;;28.20;2.95;;;3.50;99.90;;;;;;6213609;23;20051;-79
2023/01/19 09:15:52;;;;;;;23.50;3.03;;;3.80;99.90;;;;;;6213054;23;20297;-79
2023/01/19 09:18:20;;;;;;;28.38;3.17;;;3.70;99.90;;;;;;6188213;23;20052;-79
2023/01/19 09:20:48;;;;;;;21.77;2.50;;;3.50;99.90;;;;;;6185650;23;20047;-81
2023/01/19 09:23:16;;;;;;;20.67;2.30;;;3.40;99.90;;;;;;6211705;23;20523;-78
2023/01/19 09:25:44;;;;;;;26.88;3.25;;;3.50;99.90;;;;;;6211813;23;20016;-78
2023/01/19 09:28:11;;;;;;;17.15;2.45;;;3.30;99.90;;;;;;6212458;23;20147;-80
2023/01/19 09:30:39;;;;;;;21.90;2.50;;;3.20;99.90;;;;;;6211670;23;20016;-80
2023/01/19 09:33:09;;;;;;;20.08;2.70;;;3.10;99.90;;;;;;6212043;23;20024;-80
2023/01/19 09:35:36;;;;;;;18.30;2.78;;;3.40;99.90;;;;;;6187874;23;20009;-81
2023/01/19 09:38:02;;;;;;;20.10;2.50;;;3.40;99.90;;;;;;6187236;23;20137;-79
2023/01/19 09:40:28;;;;;;;19.45;1.95;;;3.20;99.90;;;;;;6211915;23;20028;-78
2023/01/19 09:43:07;;;;;;;20.20;2.63;;;3.40;99.90;;;;;;6213015;23;20013;-79
2023/01/19 09:45:56;;;;;;;21.38;2.50;;;3.40;99.90;;;;;;6210547;23;20008;-78
2023/01/19 09:48:33;;;;;;;18.83;2.33;;;3.50;99.90;;;;;;6186884;23;20091;-80
2023/01/19 09:51:03;;;;;;;15.38;1.55;;;3.70;99.90;;;;;;6185611;23;20059;-80
2023/01/19 09:53:43;;;;;;;15.38;1.52;;;3.80;99.90;;;;;;6210341;23;20017;-80
2023/01/19 09:56:19;;;;;;;16.98;2.53;;;3.80;99.90;;;;;;6183351;23;20013;-80
2023/01/19 09:58:47;;;;;;;12.18;1.77;;;4.00;99.90;;;;;;6212268;23;20013;-81
2023/01/19 10:01:18;;;;;;;13.80;1.60;;;3.70;99.90;;;;;;6208990;23;20425;-80
2023/01/19 10:03:44;;;;;;;9.10;1.60;;;3.80;99.90;;;;;;6209661;23;20095;-80
2023/01/19 10:06:13;;;;;;;14.10;1.83;;;4.00;99.90;;;;;;6209752;23;20050;-81
2023/01/19 10:08:48;;;;;;;25.27;2.35;;;3.90;99.90;;;;;;6184331;23;20048;-81
2023/01/19 10:11:35;;;;;;;20.45;2.33;;;4.10;99.90;;;;;;6185501;23;20016;-81
2023/01/19 10:14:08;;;;;;;24.00;2.60;;;3.90;99.90;;;;;;6209760;23;20026;-81
2023/01/19 10:16:44;;;;;;;15.68;2.10;;;4.00;99.90;;;;;;6184564;23;20013;-81
2023/01/19 10:19:36;;;;;;;25.63;2.70;;;3.90;99.90;;;;;;6184430;23;20047;-81
2023/01/19 10:22:17;;;;;;;16.60;2.20;;;3.90;99.90;;;;;;6183937;23;20008;-81
2023/01/19 10:24:44;;;;;;;17.40;1.88;;;4.00;99.90;;;;;;6208484;23;20059;-80
2023/01/19 10:27:19;;;;;;;17.45;1.80;;;4.10;99.90;;;;;;6184827;23;20074;-79
2023/01/19 10:29:45;;;;;;;14.88;2.22;;;4.10;99.90;;;;;;6183800;23;20035;-80
2023/01/19 10:32:18;;;;;;;17.02;2.03;;;4.30;99.90;;;;;;6158885;23;20490;-80
2023/01/19 10:34:45;;;;;;;15.98;2.08;;;4.20;99.90;;;;;;6210617;23;20444;-79
2023/01/19 10:37:16;;;;;;;17.48;1.70;;;4.10;99.90;;;;;;6206274;23;20008;-80
2023/01/19 10:39:45;;;;;;;16.17;2.13;;;4.20;99.90;;;;;;6208093;23;20425;-80
2023/01/19 10:42:16;;;;;;;17.48;1.83;;;4.30;99.90;;;;;;6206413;23;20031;-79
2023/01/19 10:44:44;;;;;;;13.38;1.80;;;4.40;99.90;;;;;;6182594;23;20451;-80
2023/01/19 10:47:16;;;;;;;11.85;1.45;;;4.30;99.90;;;;;;6208511;23;20013;-80
2023/01/19 10:49:43;;;;;;;20.10;2.22;;;4.40;99.90;;;;;;6206741;23;20092;-81
2023/01/19 10:52:25;;;;;;;14.93;2.03;;;4.50;99.90;;;;;;6183659;23;20044;-81
2023/01/19 10:54:51;;;;;;;14.30;1.80;;;4.50;99.90;;;;;;6182643;23;20101;-82
2023/01/19 10:57:29;;;;;;;14.85;2.03;;;4.50;99.90;;;;;;6184481;23;20013;-84
2023/01/19 10:59:55;;;;;;;15.93;1.75;;;4.70;99.90;;;;;;6207384;23;20028;-84
2023/01/19 11:02:26;;;;;;;15.57;1.77;;;4.80;99.90;;;;;;6210175;23;20017;-83
2023/01/19 11:04:55;;;;;;;19.35;1.98;;;4.70;99.90;;;;;;6184198;23;20021;-85
2023/01/19 11:07:26;;;;;;;17.58;1.75;;;4.70;99.90;;;;;;6183417;23;20420;-82
2023/01/19 11:10:16;;;;;;;18.15;2.65;;;5.10;99.90;;;;;;6183367;23;20021;-84
2023/01/19 11:12:55;;;;;;;15.18;2.05;;;4.90;99.90;;;;;;6184101;23;20019;-84
2023/01/19 11:15:35;;;;;;;20.35;2.35;;;5.10;99.90;;;;;;6184211;23;20017;-87
2023/01/19 11:18:05;;;;;;;14.88;2.13;;;5.00;99.90;;;;;;6183732;23;20498;-84
2023/01/19 11:20:42;;;;;;;14.80;2.25;;;5.20;99.90;;;;;;6184740;23;20019;-85
2023/01/19 11:23:17;;;;;;;17.83;2.45;;;5.30;99.90;;;;;;6208330;23;20110;-83
2023/01/19 11:25:46;;;;;;;19.13;2.10;;;5.10;99.90;;;;;;6208745;23;20147;-85
2023/01/19 11:28:23;;;;;;;16.33;1.77;;;5.30;99.90;;;;;;6210667;23;20083;-88
2023/01/19 11:31:00;;;;;;;21.15;2.05;;;5.20;99.90;;;;;;6184687;23;20013;-85
2023/01/19 11:33:34;;;;;;;12.38;1.95;;;5.30;99.90;;;;;;6186198;23;20368;-87
2023/01/19 11:36:15;;;;;;;17.20;2.72;;;5.40;99.90;;;;;;6213023;23;20425;-86
2023/01/19 11:38:43;;;;;;;16.33;2.40;;;5.40;99.90;;;;;;6187055;23;20020;-87
2023/01/19 11:41:30;;;;;;;17.20;2.10;;;5.60;99.90;;;;;;6184597;23;20016;-86
2023/01/19 11:44:02;;;;;;;13.00;1.98;;;5.60;99.90;;;;;;6185618;23;20083;-84
2023/01/19 11:46:33;;;;;;;15.98;2.17;;;5.70;99.90;;;;;;6185661;23;20016;-84
2023/01/19 11:49:03;;;;;;;15.30;2.40;;;5.90;99.90;;;;;;6185097;23;20021;-84
2023/01/19 11:52:01;;;;;;;22.65;2.83;;;5.90;99.90;;;;;;6186359;23;20095;-83
2023/01/19 11:54:32;;;;;;;14.95;1.73;;;6.00;99.90;;;;;;6213499;23;20008;-86
2023/01/19 11:56:59;;;;;;;9.32;1.30;;;5.90;99.90;;;;;;6214172;23;20008;-83
2023/01/19 11:59:25;;;;;;;12.88;1.63;;;6.00;99.90;;;;;;6214026;23;20063;-85
2023/01/19 12:01:57;;;;;;;11.93;1.50;;;6.10;99.90;;;;;;6211020;23;20146;-86
2023/01/19 12:04:35;;;;;;;15.40;1.70;;;6.20;99.90;;;;;;6211744;23;20437;-83
2023/01/19 12:07:06;;;;;;;18.55;1.65;;;6.40;99.90;;;;;;6210658;23;20717;-84
2023/01/19 12:09:47;;;;;;;11.95;1.67;;;6.40;99.90;;;;;;6185319;23;20055;-83
2023/01/19 12:12:28;;;;;;;15.07;2.17;;;6.50;99.90;;;;;;6208497;23;20036;-84
2023/01/19 12:14:57;;;;;;;8.52;1.23;;;6.50;99.90;;;;;;6185326;23;20075;-85
2023/01/19 12:17:30;;;;;;;11.32;1.75;;;6.50;99.90;;;;;;6209291;23;20151;-81
2023/01/19 12:20:35;;;;;;;16.10;1.70;;;6.60;99.90;;;;;;6209566;23;20055;-84
2023/01/19 12:23:09;;;;;;;13.05;1.80;;;6.40;99.90;;;;;;6106607;23;20014;-84
2023/01/19 12:25:52;;;;;;;8.57;1.42;;;6.30;99.90;;;;;;6118871;23;20275;-87
2023/01/19 12:28:30;;;;;;;12.05;1.80;;;6.10;99.90;;;;;;6125084;23;20028;-86
2023/01/19 12:30:58;;;;;;;9.77;1.58;;;5.80;99.90;;;;;;6120762;23;20010;-86
2023/01/19 12:33:37;;;;;;;12.65;1.60;;;5.90;99.90;;;;;;6120735;23;20021;-86
2023/01/19 12:36:20;;;;;;;9.27;1.60;;;5.80;99.90;;;;;;6118317;23;20084;-85
2023/01/19 12:38:51;;;;;;;12.43;1.52;;;5.80;99.90;;;;;;6070296;23;20014;-86
2023/01/19 12:41:39;;;;;;;12.80;1.95;;;5.80;99.90;;;;;;6120160;23;20021;-85
2023/01/19 12:44:10;;;;;;;10.35;1.73;;;5.80;99.90;;;;;;6127414;23;20017;-83
2023/01/19 12:46:42;;;;;;;8.75;1.10;;;5.80;99.90;;;;;;6076884;23;20053;-85
2023/01/19 12:49:22;;;;;;;12.07;1.35;;;5.80;99.90;;;;;;6075212;23;20026;-84
2023/01/19 12:51:50;;;;;;;8.43;1.42;;;5.80;99.90;;;;;;6099043;23;20021;-85
2023/01/19 12:54:29;;;;;;;15.02;2.33;;;5.80;99.90;;;;;;6135494;23;20014;-83
2023/01/19 12:57:21;;;;;;;8.23;1.48;;;5.70;99.90;;;;;;6121726;23;20075;-86
2023/01/19 12:59:56;;;;;;;6.25;1.10;;;5.80;99.90;;;;;;6169185;23;20092;-83
2023/01/19 13:02:44;;;;;;;9.98;1.42;;;5.60;99.90;;;;;;6194738;23;20012;-85
2023/01/19 13:05:30;;;;;;;11.00;1.48;;;5.60;99.90;;;;;;6212047;23;20044;-84
2023/01/19 13:08:05;;;;;;;10.93;1.35;;;5.40;99.90;;;;;;6211553;23;20019;-83
2023/01/19 13:10:59;;;;;;;8.43;1.40;;;5.50;99.90;;;;;;6188435;23;20055;-87
2023/01/19 13:13:36;;;;;;;6.95;1.10;;;5.30;99.90;;;;;;6213825;23;20091;-83
2023/01/19 13:16:23;;;;;;;10.65;1.52;;;5.30;99.90;;;;;;6212479;23;20017;-86